createdAt,value
2023-05-22T00:00:09.353Z,15.37
2023-05-22T00:01:19.974Z,15.82
2023-05-22T00:02:23.596Z,15.26
2023-05-22T00:03:27.639Z,14.91
2023-05-22T00:04:32.162Z,14.95
2023-05-22T00:05:39.721Z,15.56
2023-05-22T00:06:46.301Z,14.71
2023-05-22T00:07:50.235Z,15.18
2023-05-22T00:08:53.522Z,15.07
2023-05-22T00:09:57.137Z,14.08
2023-05-22T00:11:00.702Z,15.06
2023-05-22T00:12:04.241Z,15.78
2023-05-22T00:13:07.624Z,14.63
2023-05-22T00:14:11.495Z,14.82
2023-05-22T00:15:14.974Z,15.81
2023-05-22T00:16:18.643Z,15.75
2023-05-22T00:17:22.308Z,16.05
2023-05-22T00:18:28.027Z,14.97
2023-05-22T00:19:31.579Z,14.77
2023-05-22T00:20:39.662Z,14.36
2023-05-22T00:21:47.701Z,14.35
2023-05-22T00:22:51.170Z,14.61
2023-05-22T00:23:55.082Z,15.03
2023-05-22T00:24:59.260Z,14.55
2023-05-22T00:26:02.954Z,14.92
2023-05-22T00:27:06.700Z,14.17
2023-05-22T00:28:10.417Z,13.64
2023-05-22T00:29:13.650Z,14.16
2023-05-22T00:30:17.074Z,14.18
2023-05-22T00:31:20.295Z,14.90
2023-05-22T00:32:24.871Z,14.24
2023-05-22T00:33:28.793Z,14.37
2023-05-22T00:34:32.233Z,13.90
2023-05-22T00:35:35.632Z,13.99
2023-05-22T00:36:39.034Z,14.25
2023-05-22T00:37:42.368Z,14.22
2023-05-22T00:38:45.877Z,14.22
2023-05-22T00:39:50.184Z,14.62
2023-05-22T00:40:53.667Z,14.35
2023-05-22T00:41:57.292Z,14.41
2023-05-22T00:43:01.452Z,14.14
2023-05-22T00:44:04.870Z,14.34
2023-05-22T00:45:09.159Z,13.71
2023-05-22T00:46:13.278Z,14.39
2023-05-22T00:47:16.758Z,14.42
2023-05-22T00:48:20.033Z,14.00
2023-05-22T00:49:23.963Z,14.63
2023-05-22T00:50:27.299Z,14.47
2023-05-22T00:51:31.284Z,15.01
2023-05-22T00:52:42.910Z,15.22
2023-05-22T00:53:47.755Z,14.76
2023-05-22T00:54:53.389Z,15.20
2023-05-22T00:55:57.938Z,14.12
2023-05-22T00:57:02.215Z,14.36
2023-05-22T00:58:09.776Z,14.82
2023-05-22T00:59:13.501Z,15.63
2023-05-22T01:00:18.821Z,15.66
2023-05-22T01:01:23.861Z,14.63
2023-05-22T01:02:27.215Z,15.05
2023-05-22T01:03:32.814Z,14.34
2023-05-22T01:04:38.033Z,15.13
2023-05-22T01:05:43.214Z,15.35
2023-05-22T01:06:48.295Z,16.45
2023-05-22T01:07:52.519Z,14.39
2023-05-22T01:08:55.750Z,14.98
2023-05-22T01:09:59.000Z,14.89
2023-05-22T01:11:11.124Z,14.75
2023-05-22T01:12:34.599Z,14.71
2023-05-22T01:14:00.709Z,14.64
2023-05-22T01:15:18.765Z,15.30
2023-05-22T01:16:33.311Z,15.48
2023-05-22T01:17:56.432Z,13.90
2023-05-22T01:19:40.192Z,14.53
2023-05-22T01:20:55.832Z,15.22
2023-05-22T01:22:18.179Z,15.02
2023-05-22T01:23:46.369Z,15.54
2023-05-22T01:25:14.204Z,14.22
2023-05-22T01:26:35.698Z,14.50
2023-05-22T01:28:10.752Z,14.02
2023-05-22T01:29:32.859Z,13.88
2023-05-22T01:30:58.547Z,14.85
2023-05-22T01:32:05.582Z,15.56
2023-05-22T01:33:10.610Z,14.37
2023-05-22T01:34:19.635Z,14.60
2023-05-22T01:35:24.800Z,15.16
2023-05-22T01:36:35.768Z,14.43
2023-05-22T01:37:41.355Z,15.35
2023-05-22T01:38:46.268Z,15.16
2023-05-22T01:39:51.998Z,15.24
2023-05-22T01:40:57.140Z,14.44
2023-05-22T01:42:01.120Z,13.94
2023-05-22T01:43:04.838Z,15.28
2023-05-22T01:44:08.339Z,15.42
2023-05-22T01:45:12.927Z,15.82
2023-05-22T01:46:16.387Z,15.70
2023-05-22T01:47:20.214Z,15.50
2023-05-22T01:48:23.562Z,15.45
2023-05-22T01:49:28.752Z,15.82
2023-05-22T01:50:32.734Z,14.82
2023-05-22T01:51:42.058Z,15.03
2023-05-22T01:53:20.776Z,14.39
2023-05-22T01:54:28.928Z,14.31
2023-05-22T01:55:58.580Z,14.26
2023-05-22T01:57:17.886Z,14.74
2023-05-22T01:58:40.371Z,14.67
2023-05-22T02:00:04.288Z,13.95
2023-05-22T02:01:21.049Z,14.82
2023-05-22T02:02:26.895Z,15.07
2023-05-22T02:03:34.360Z,15.16
2023-05-22T02:04:46.389Z,14.98
2023-05-22T02:05:56.324Z,14.80
2023-05-22T02:07:01.892Z,14.18
2023-05-22T02:08:06.552Z,17.09
2023-05-22T02:09:12.411Z,21.16
2023-05-22T02:10:17.724Z,25.29
2023-05-22T02:11:25.628Z,30.02
2023-05-22T02:12:29.900Z,30.13
2023-05-22T02:13:34.962Z,30.73
2023-05-22T02:14:38.870Z,27.93
2023-05-22T02:15:45.949Z,28.39
2023-05-22T02:16:49.688Z,26.73
2023-05-22T02:17:54.845Z,28.74
2023-05-22T02:19:08.368Z,29.68
2023-05-22T02:20:17.345Z,30.02
2023-05-22T02:21:20.767Z,31.35
2023-05-22T02:22:24.124Z,33.26
2023-05-22T02:23:30.339Z,35.23
2023-05-22T02:24:34.576Z,35.66
2023-05-22T02:25:37.978Z,34.39
2023-05-22T02:26:41.316Z,33.02
2023-05-22T02:27:46.596Z,32.15
2023-05-22T02:28:49.863Z,31.47
2023-05-22T02:29:53.430Z,29.76
2023-05-22T02:30:57.003Z,30.11
2023-05-22T02:32:00.755Z,32.14
2023-05-22T02:33:06.712Z,33.65
2023-05-22T02:34:10.054Z,31.08
2023-05-22T02:35:14.529Z,27.04
2023-05-22T02:36:18.301Z,27.72
2023-05-22T02:37:23.593Z,28.44
2023-05-22T02:38:27.139Z,30.28
2023-05-22T02:39:31.685Z,30.53
2023-05-22T02:40:34.951Z,28.50
2023-05-22T02:41:38.426Z,29.05
2023-05-22T02:42:42.085Z,28.44
2023-05-22T02:43:45.469Z,31.37
2023-05-22T02:44:49.091Z,30.63
2023-05-22T02:45:52.408Z,28.52
2023-05-22T02:46:55.994Z,26.10
2023-05-22T02:48:02.313Z,26.38
2023-05-22T02:49:05.832Z,27.05
2023-05-22T02:50:09.501Z,27.16
2023-05-22T02:51:13.014Z,28.16
2023-05-22T02:52:16.503Z,28.91
2023-05-22T02:53:20.174Z,29.95
2023-05-22T02:54:23.759Z,30.73
2023-05-22T02:55:27.028Z,30.21
2023-05-22T02:56:30.371Z,28.39
2023-05-22T02:57:34.419Z,28.00
2023-05-22T02:58:37.974Z,28.92
2023-05-22T02:59:41.290Z,27.36
2023-05-22T03:00:44.583Z,28.18
2023-05-22T03:01:49.146Z,27.32
2023-05-22T03:02:52.507Z,27.83
2023-05-22T03:03:56.688Z,28.32
2023-05-22T03:05:00.748Z,27.02
2023-05-22T03:06:04.927Z,27.45
2023-05-22T03:07:10.165Z,26.26
2023-05-22T03:08:13.931Z,26.40
2023-05-22T03:09:17.638Z,28.23
2023-05-22T03:10:21.383Z,27.17
2023-05-22T03:11:24.815Z,24.76
2023-05-22T03:12:28.225Z,23.76
2023-05-22T03:13:31.564Z,22.92
2023-05-22T03:14:35.078Z,23.73
2023-05-22T03:15:38.696Z,23.74
2023-05-22T03:16:48.620Z,23.49
2023-05-22T03:17:51.971Z,22.05
2023-05-22T03:19:15.864Z,20.82
2023-05-22T03:20:19.404Z,18.88
2023-05-22T03:21:22.711Z,18.04
2023-05-22T03:22:26.130Z,20.92
2023-05-22T03:23:29.380Z,20.51
2023-05-22T03:24:33.003Z,19.78
2023-05-22T03:25:38.829Z,19.59
2023-05-22T03:26:42.672Z,17.96
2023-05-22T03:27:52.302Z,18.73
2023-05-22T03:28:56.708Z,17.62
2023-05-22T03:30:01.187Z,19.26
2023-05-22T03:31:05.622Z,18.53
2023-05-22T03:32:17.436Z,17.92
2023-05-22T03:33:20.968Z,18.00
2023-05-22T03:34:24.247Z,18.74
2023-05-22T03:35:27.827Z,18.35
2023-05-22T03:36:34.623Z,17.18
2023-05-22T03:37:38.097Z,16.78
2023-05-22T03:38:42.149Z,17.35
2023-05-22T03:39:45.737Z,17.85
2023-05-22T03:41:02.701Z,16.82
2023-05-22T03:42:06.884Z,16.05
2023-05-22T03:43:10.357Z,17.24
2023-05-22T03:44:14.847Z,16.69
2023-05-22T03:45:19.549Z,17.70
2023-05-22T03:46:24.611Z,17.09
2023-05-22T03:47:28.123Z,17.79
2023-05-22T03:48:32.468Z,22.43
2023-05-22T03:49:35.806Z,26.24
2023-05-22T03:50:42.036Z,28.60
2023-05-22T03:51:45.492Z,27.76
2023-05-22T03:52:48.889Z,28.06
2023-05-22T03:53:52.142Z,25.36
2023-05-22T03:54:56.379Z,24.34
2023-05-22T03:56:00.054Z,23.79
2023-05-22T03:57:03.731Z,25.15
2023-05-22T03:58:07.155Z,25.32
2023-05-22T03:59:10.844Z,22.74
2023-05-22T04:00:18.455Z,22.61
2023-05-22T04:01:21.870Z,21.28
2023-05-22T04:02:27.036Z,20.14
2023-05-22T04:03:30.592Z,19.63
2023-05-22T04:04:39.160Z,19.82
2023-05-22T04:05:43.076Z,17.88
2023-05-22T04:06:47.684Z,18.37
2023-05-22T04:07:51.376Z,17.41
2023-05-22T04:08:54.776Z,17.23
2023-05-22T04:09:58.295Z,16.40
2023-05-22T04:11:02.077Z,17.12
2023-05-22T04:12:06.382Z,16.17
2023-05-22T04:13:09.649Z,16.26
2023-05-22T04:14:13.476Z,16.03
2023-05-22T04:15:18.032Z,16.12
2023-05-22T04:16:22.465Z,16.25
2023-05-22T04:17:32.898Z,16.66
2023-05-22T04:18:36.280Z,16.14
2023-05-22T04:19:39.672Z,16.44
2023-05-22T04:20:46.055Z,16.85
2023-05-22T04:21:50.000Z,16.93
2023-05-22T04:22:55.206Z,16.09
2023-05-22T04:23:58.802Z,15.93
2023-05-22T04:25:02.197Z,16.46
2023-05-22T04:26:05.549Z,16.46
2023-05-22T04:27:08.913Z,16.29
2023-05-22T04:28:13.784Z,16.64
2023-05-22T04:29:17.305Z,18.42
2023-05-22T04:30:20.645Z,16.81
2023-05-22T04:31:23.975Z,16.41
2023-05-22T04:32:28.357Z,16.99
2023-05-22T04:33:34.968Z,16.01
2023-05-22T04:34:38.732Z,16.23
2023-05-22T04:35:43.105Z,15.83
2023-05-22T04:36:48.715Z,15.67
2023-05-22T04:37:52.046Z,16.86
2023-05-22T04:38:55.635Z,16.37
2023-05-22T04:40:04.018Z,16.49
2023-05-22T04:41:10.996Z,15.70
2023-05-22T04:42:15.244Z,15.39
2023-05-22T04:43:19.454Z,16.02
2023-05-22T04:44:23.720Z,16.19
2023-05-22T04:45:31.474Z,15.50
2023-05-22T04:46:36.585Z,17.04
2023-05-22T04:47:42.239Z,16.87
2023-05-22T04:48:45.597Z,16.79
2023-05-22T04:49:49.026Z,16.42
2023-05-22T04:50:52.839Z,16.60
2023-05-22T04:51:58.209Z,16.30
2023-05-22T04:53:04.800Z,17.27
2023-05-22T04:54:08.457Z,16.82
2023-05-22T04:55:13.535Z,16.16
2023-05-22T04:56:27.889Z,16.40
2023-05-22T04:57:39.032Z,16.43
2023-05-22T04:58:42.441Z,16.68
2023-05-22T04:59:46.294Z,15.92
2023-05-22T05:00:50.220Z,16.30
2023-05-22T05:01:53.866Z,16.57
2023-05-22T05:02:58.011Z,16.91
2023-05-22T05:04:01.733Z,16.71
2023-05-22T05:05:05.413Z,17.50
2023-05-22T05:06:09.171Z,17.06
2023-05-22T05:07:14.189Z,16.71
2023-05-22T05:08:17.453Z,16.92
2023-05-22T05:09:20.824Z,17.13
2023-05-22T05:10:24.263Z,16.97
2023-05-22T05:11:28.780Z,16.78
2023-05-22T05:12:32.039Z,16.90
2023-05-22T05:13:35.390Z,17.11
2023-05-22T05:14:38.772Z,16.73
2023-05-22T05:15:42.068Z,17.36
2023-05-22T05:16:45.496Z,17.73
2023-05-22T05:17:49.335Z,16.63
2023-05-22T05:18:54.194Z,16.99
2023-05-22T05:19:57.538Z,17.75
2023-05-22T05:21:00.933Z,16.14
2023-05-22T05:22:04.285Z,16.13
2023-05-22T05:23:07.643Z,17.40
2023-05-22T05:24:10.994Z,16.95
2023-05-22T05:25:14.403Z,17.44
2023-05-22T05:26:17.870Z,16.85
2023-05-22T05:27:21.231Z,17.27
2023-05-22T05:28:24.938Z,17.76
2023-05-22T05:29:29.136Z,17.63
2023-05-22T05:31:04.847Z,16.94
2023-05-22T05:32:25.360Z,17.87
2023-05-22T05:33:57.370Z,18.55
2023-05-22T05:35:12.864Z,17.29
2023-05-22T05:36:22.509Z,17.76
2023-05-22T05:37:26.802Z,18.14
2023-05-22T05:38:33.320Z,18.11
2023-05-22T05:39:36.968Z,19.25
2023-05-22T05:40:42.813Z,18.43
2023-05-22T05:41:47.038Z,18.89
2023-05-22T05:42:50.578Z,17.92
2023-05-22T05:44:00.587Z,18.73
2023-05-22T05:45:07.394Z,18.94
2023-05-22T05:46:11.008Z,18.99
2023-05-22T05:47:14.552Z,18.70
2023-05-22T05:48:18.336Z,19.16
2023-05-22T05:49:24.128Z,18.31
2023-05-22T05:50:27.639Z,18.83
2023-05-22T05:51:30.953Z,18.76
2023-05-22T05:52:35.000Z,18.15
2023-05-22T05:53:44.666Z,18.96
2023-05-22T05:54:48.793Z,17.91
2023-05-22T05:55:56.447Z,18.13
2023-05-22T05:56:59.761Z,18.13
2023-05-22T05:58:03.558Z,18.34
2023-05-22T05:59:32.815Z,18.00
2023-05-22T06:00:56.212Z,17.87
2023-05-22T06:01:59.843Z,17.52
2023-05-22T06:03:07.530Z,18.41
2023-05-22T06:04:38.032Z,17.42
2023-05-22T06:05:41.445Z,16.85
2023-05-22T06:06:55.565Z,18.08
2023-05-22T06:08:09.406Z,18.57
2023-05-22T06:09:13.137Z,17.63
2023-05-22T06:10:35.134Z,17.35
2023-05-22T06:11:48.585Z,17.36
2023-05-22T06:12:52.445Z,16.86
2023-05-22T06:13:56.933Z,17.09
2023-05-22T06:15:00.367Z,17.34
2023-05-22T06:16:06.423Z,16.98
2023-05-22T06:17:11.176Z,16.96
2023-05-22T06:18:18.037Z,17.27
2023-05-22T06:19:21.524Z,17.36
2023-05-22T06:20:25.925Z,17.53
2023-05-22T06:21:29.309Z,17.32
2023-05-22T06:22:32.691Z,18.02
2023-05-22T06:23:36.183Z,17.23
2023-05-22T06:24:39.512Z,17.40
2023-05-22T06:25:49.443Z,17.18
2023-05-22T06:26:54.623Z,17.31
2023-05-22T06:27:58.006Z,17.22
2023-05-22T06:29:01.611Z,16.72
2023-05-22T06:30:08.715Z,17.31
2023-05-22T06:31:15.411Z,17.27
2023-05-22T06:32:21.271Z,15.96
2023-05-22T06:33:25.620Z,16.64
2023-05-22T06:34:30.065Z,17.04
2023-05-22T06:35:35.080Z,17.24
2023-05-22T06:36:39.534Z,17.04
2023-05-22T06:37:43.852Z,16.99
2023-05-22T06:38:48.838Z,16.83
2023-05-22T06:40:15.009Z,16.94
2023-05-22T06:41:31.015Z,16.51
2023-05-22T06:42:34.512Z,17.31
2023-05-22T06:44:16.069Z,16.97
2023-05-22T06:45:20.554Z,17.15
2023-05-22T06:46:53.629Z,16.22
2023-05-22T06:48:01.334Z,15.08
2023-05-22T06:49:06.873Z,16.08
2023-05-22T06:50:20.421Z,15.73
2023-05-22T06:51:25.071Z,16.11
2023-05-22T06:52:34.545Z,16.31
2023-05-22T06:53:38.923Z,15.71
2023-05-22T06:54:47.176Z,15.24
2023-05-22T06:55:51.893Z,15.08
2023-05-22T06:57:07.012Z,15.69
2023-05-22T06:58:10.411Z,15.07
2023-05-22T06:59:15.169Z,16.29
2023-05-22T07:00:39.527Z,15.54
2023-05-22T07:01:53.418Z,15.75
2023-05-22T07:03:07.642Z,16.46
2023-05-22T07:04:25.309Z,15.35
2023-05-22T07:05:36.205Z,15.18
2023-05-22T07:06:42.232Z,15.88
2023-05-22T07:07:47.197Z,15.69
2023-05-22T07:08:50.614Z,15.65
2023-05-22T07:09:53.944Z,15.15
2023-05-22T07:10:57.305Z,15.64
2023-05-22T07:12:00.614Z,15.00
2023-05-22T07:13:04.645Z,14.93
2023-05-22T07:14:09.692Z,15.48
2023-05-22T07:15:15.137Z,14.58
2023-05-22T07:16:24.755Z,14.33
2023-05-22T07:17:28.953Z,14.93
2023-05-22T07:18:33.914Z,14.54
2023-05-22T07:19:37.294Z,14.58
2023-05-22T07:20:41.579Z,14.86
2023-05-22T07:21:50.572Z,14.37
2023-05-22T07:22:55.713Z,14.47
2023-05-22T07:23:59.197Z,14.27
2023-05-22T07:25:02.492Z,14.51
2023-05-22T07:26:08.839Z,13.61
2023-05-22T07:27:17.898Z,14.82
2023-05-22T07:28:23.748Z,14.10
2023-05-22T07:29:34.350Z,13.76
2023-05-22T07:30:40.109Z,13.79
2023-05-22T07:31:43.777Z,14.10
2023-05-22T07:32:48.095Z,14.29
2023-05-22T07:33:51.886Z,14.20
2023-05-22T07:34:55.164Z,13.74
2023-05-22T07:35:58.619Z,14.66
2023-05-22T07:37:08.486Z,15.29
2023-05-22T07:38:12.086Z,14.77
2023-05-22T07:39:20.458Z,15.33
2023-05-22T07:40:24.488Z,14.59
2023-05-22T07:41:29.700Z,14.94
2023-05-22T07:42:33.411Z,15.70
2023-05-22T07:43:38.531Z,15.12
2023-05-22T07:44:42.366Z,14.77
2023-05-22T07:45:45.993Z,14.06
2023-05-22T07:46:52.684Z,14.19
2023-05-22T07:47:59.696Z,14.45
2023-05-22T07:49:03.012Z,14.44
2023-05-22T07:50:07.748Z,13.69
2023-05-22T07:51:15.488Z,14.09
2023-05-22T07:52:18.973Z,13.57
2023-05-22T07:53:22.472Z,13.87
2023-05-22T07:54:27.798Z,13.35
2023-05-22T07:55:31.416Z,13.37
2023-05-22T07:56:37.198Z,12.64
2023-05-22T07:57:41.397Z,13.69
2023-05-22T07:58:56.957Z,13.26
2023-05-22T08:00:00.317Z,13.07
2023-05-22T08:01:07.357Z,13.00
2023-05-22T08:02:12.562Z,12.70
2023-05-22T08:03:17.638Z,12.65
2023-05-22T08:04:21.477Z,12.65
2023-05-22T08:05:24.880Z,12.67
2023-05-22T08:06:28.226Z,12.41
2023-05-22T08:07:33.664Z,13.25
2023-05-22T08:08:37.174Z,12.61
2023-05-22T08:09:40.816Z,12.32
2023-05-22T08:11:01.708Z,12.27
2023-05-22T08:12:07.515Z,12.97
2023-05-22T08:13:11.212Z,13.28
2023-05-22T08:14:14.509Z,12.64
2023-05-22T08:15:17.764Z,13.38
2023-05-22T08:16:21.243Z,12.71
2023-05-22T08:17:24.791Z,13.16
2023-05-22T08:18:29.951Z,12.89
2023-05-22T08:19:33.983Z,13.62
2023-05-22T08:20:39.361Z,13.37
2023-05-22T08:21:42.859Z,13.46
2023-05-22T08:22:46.850Z,12.86
2023-05-22T08:23:50.716Z,13.58
2023-05-22T08:24:53.959Z,12.88
2023-05-22T08:25:59.588Z,13.20
2023-05-22T08:27:02.862Z,14.20
2023-05-22T08:28:07.098Z,15.06
2023-05-22T08:29:10.513Z,14.68
2023-05-22T08:30:13.878Z,13.61
2023-05-22T08:31:17.230Z,13.53
2023-05-22T08:32:20.530Z,13.14
2023-05-22T08:33:23.931Z,13.92
2023-05-22T08:34:27.336Z,13.74
2023-05-22T08:35:30.571Z,13.54
2023-05-22T08:36:34.593Z,14.27
2023-05-22T08:37:38.019Z,14.43
2023-05-22T08:38:42.397Z,13.81
2023-05-22T08:39:45.710Z,14.48
2023-05-22T08:40:53.438Z,14.38
2023-05-22T08:41:57.389Z,14.34
2023-05-22T08:43:00.904Z,14.49
2023-05-22T08:44:04.807Z,14.46
2023-05-22T08:45:08.702Z,14.37
2023-05-22T08:46:12.423Z,14.60
2023-05-22T08:47:19.290Z,14.16
2023-05-22T08:48:25.496Z,15.65
2023-05-22T08:49:29.122Z,15.08
2023-05-22T08:50:33.253Z,15.15
2023-05-22T08:51:40.751Z,14.56
2023-05-22T08:52:52.864Z,14.95
2023-05-22T08:54:01.264Z,15.38
2023-05-22T08:55:06.237Z,15.59
2023-05-22T08:56:10.061Z,15.57
2023-05-22T08:57:13.521Z,16.38
2023-05-22T08:58:18.903Z,16.28
2023-05-22T08:59:23.653Z,16.98
2023-05-22T09:00:26.992Z,15.73
2023-05-22T09:01:31.297Z,16.49
2023-05-22T09:02:35.102Z,16.29
2023-05-22T09:03:39.313Z,16.33
2023-05-22T09:04:42.763Z,17.49
2023-05-22T09:05:46.183Z,17.40
2023-05-22T09:06:49.557Z,17.03
2023-05-22T09:07:55.295Z,16.15
2023-05-22T09:09:02.209Z,16.97
2023-05-22T09:10:07.890Z,16.92
2023-05-22T09:11:12.811Z,16.34
2023-05-22T09:12:16.284Z,15.98
2023-05-22T09:13:28.680Z,18.29
2023-05-22T09:14:42.718Z,18.19
2023-05-22T09:15:46.133Z,16.75
2023-05-22T09:16:55.512Z,17.02
2023-05-22T09:17:59.752Z,17.31
2023-05-22T09:19:03.034Z,17.68
2023-05-22T09:20:07.036Z,17.51
2023-05-22T09:21:25.889Z,17.43
2023-05-22T09:22:39.910Z,16.98
2023-05-22T09:23:43.198Z,16.80
2023-05-22T09:24:47.909Z,17.58
2023-05-22T09:25:51.417Z,18.41
2023-05-22T09:26:54.702Z,17.83
2023-05-22T09:27:58.203Z,18.80
2023-05-22T09:29:01.938Z,17.64
2023-05-22T09:30:05.485Z,17.35
2023-05-22T09:31:09.280Z,17.73
2023-05-22T09:32:15.537Z,18.81
2023-05-22T09:33:23.332Z,18.26
2023-05-22T09:34:36.275Z,17.83
2023-05-22T09:35:40.309Z,18.51
2023-05-22T09:36:43.805Z,19.07
2023-05-22T09:37:47.391Z,18.22
2023-05-22T09:38:50.667Z,18.70
2023-05-22T09:39:55.809Z,19.48
2023-05-22T09:40:59.126Z,18.09
2023-05-22T09:42:02.610Z,18.00
2023-05-22T09:43:10.852Z,17.35
2023-05-22T09:44:15.814Z,17.57
2023-05-22T09:45:24.850Z,18.23
2023-05-22T09:46:28.240Z,18.13
2023-05-22T09:47:31.847Z,18.44
2023-05-22T09:48:39.029Z,18.05
2023-05-22T09:49:44.875Z,18.02
2023-05-22T09:50:54.396Z,18.14
2023-05-22T09:51:59.350Z,17.67
2023-05-22T09:53:04.873Z,17.25
2023-05-22T09:54:10.321Z,17.85
2023-05-22T09:55:15.243Z,17.50
2023-05-22T09:56:27.510Z,18.01
2023-05-22T09:57:46.152Z,18.06
2023-05-22T09:58:49.629Z,17.45
2023-05-22T09:59:55.703Z,18.03
2023-05-22T10:01:01.991Z,18.33
2023-05-22T10:02:07.796Z,17.28
2023-05-22T10:03:16.704Z,17.37
2023-05-22T10:04:22.781Z,17.71
2023-05-22T10:05:32.227Z,17.43
2023-05-22T10:06:38.418Z,17.18
2023-05-22T10:07:52.598Z,17.83
2023-05-22T10:09:04.803Z,16.97
2023-05-22T10:10:15.327Z,18.09
2023-05-22T10:11:19.362Z,17.96
2023-05-22T10:12:25.039Z,17.58
2023-05-22T10:13:29.944Z,16.71
2023-05-22T10:14:35.370Z,17.34
2023-05-22T10:15:39.331Z,17.05
2023-05-22T10:16:46.661Z,18.33
2023-05-22T10:17:51.405Z,17.46
2023-05-22T10:18:56.087Z,18.21
2023-05-22T10:19:59.919Z,18.72
2023-05-22T10:21:04.280Z,17.58
2023-05-22T10:22:08.266Z,17.96
2023-05-22T10:23:12.085Z,17.73
2023-05-22T10:24:16.206Z,18.52
2023-05-22T10:25:20.227Z,17.74
2023-05-22T10:26:24.785Z,17.46
2023-05-22T10:27:28.162Z,17.30
2023-05-22T10:28:42.966Z,17.99
2023-05-22T10:29:56.783Z,17.85
2023-05-22T10:31:20.546Z,17.88
2023-05-22T10:33:12.377Z,18.61
2023-05-22T10:34:29.376Z,16.67
2023-05-22T10:35:58.966Z,16.96
2023-05-22T10:37:27.696Z,16.65
2023-05-22T10:38:37.023Z,18.16
2023-05-22T10:40:05.870Z,17.88
2023-05-22T10:41:10.647Z,18.23
2023-05-22T10:42:15.251Z,18.15
2023-05-22T10:43:19.329Z,17.67
2023-05-22T10:44:23.692Z,17.44
2023-05-22T10:45:29.169Z,17.91
2023-05-22T10:46:35.470Z,17.83
2023-05-22T10:47:39.015Z,17.66
2023-05-22T10:48:47.197Z,18.17
2023-05-22T10:49:51.937Z,18.07
2023-05-22T10:50:55.403Z,17.99
2023-05-22T10:51:59.269Z,17.93
2023-05-22T10:53:25.394Z,18.12
2023-05-22T10:54:45.931Z,18.61
2023-05-22T10:55:54.061Z,18.49
2023-05-22T10:57:13.084Z,17.94
2023-05-22T10:58:26.737Z,17.48
2023-05-22T10:59:35.651Z,18.76
2023-05-22T11:00:39.322Z,19.02
2023-05-22T11:01:42.978Z,18.98
2023-05-22T11:03:17.794Z,18.34
2023-05-22T11:04:26.542Z,17.34
2023-05-22T11:05:31.551Z,17.43
2023-05-22T11:06:46.451Z,17.46
2023-05-22T11:07:50.463Z,17.59
2023-05-22T11:08:57.996Z,18.22
2023-05-22T11:10:01.729Z,18.75
2023-05-22T11:11:14.858Z,17.96
2023-05-22T11:12:25.272Z,17.24
2023-05-22T11:13:29.685Z,18.07
2023-05-22T11:14:35.735Z,18.13
2023-05-22T11:15:46.634Z,18.06
2023-05-22T11:16:50.082Z,17.26
2023-05-22T11:17:53.449Z,17.75
2023-05-22T11:19:22.613Z,18.32
2023-05-22T11:20:27.084Z,18.06
2023-05-22T11:21:32.674Z,17.56
2023-05-22T11:22:43.091Z,17.58
2023-05-22T11:23:46.765Z,18.34
2023-05-22T11:24:50.120Z,18.33
2023-05-22T11:25:53.581Z,18.31
2023-05-22T11:27:17.763Z,18.28
2023-05-22T11:28:21.391Z,17.45
2023-05-22T11:29:25.257Z,17.59
2023-05-22T11:30:31.167Z,18.30
2023-05-22T11:31:34.989Z,17.50
2023-05-22T11:32:40.445Z,17.34
2023-05-22T11:33:45.833Z,17.23
2023-05-22T11:34:51.182Z,16.89
2023-05-22T11:35:54.994Z,17.50
2023-05-22T11:37:00.556Z,17.50
2023-05-22T11:38:09.340Z,17.09
2023-05-22T11:39:16.041Z,17.94
2023-05-22T11:40:22.299Z,17.19
2023-05-22T11:41:25.667Z,17.64
2023-05-22T11:42:28.876Z,17.27
2023-05-22T11:43:35.673Z,18.56
2023-05-22T11:44:42.573Z,17.10
2023-05-22T11:45:45.951Z,16.12
2023-05-22T11:46:49.414Z,16.29
2023-05-22T11:47:53.505Z,16.74
2023-05-22T11:48:57.684Z,17.05
2023-05-22T11:50:02.686Z,16.98
2023-05-22T11:51:06.404Z,17.26
2023-05-22T11:52:11.126Z,16.33
2023-05-22T11:53:14.473Z,16.58
2023-05-22T11:54:21.041Z,16.91
2023-05-22T11:55:25.231Z,16.27
2023-05-22T11:56:28.556Z,16.72
2023-05-22T11:57:32.943Z,16.27
2023-05-22T11:58:36.295Z,16.71
2023-05-22T11:59:39.804Z,16.14
2023-05-22T12:00:44.405Z,16.73
2023-05-22T12:01:51.227Z,17.50
2023-05-22T12:02:56.870Z,17.05
2023-05-22T12:04:00.457Z,16.80
2023-05-22T12:05:04.971Z,17.29
2023-05-22T12:06:09.936Z,17.70
2023-05-22T12:07:13.506Z,16.78
2023-05-22T12:08:17.615Z,17.15
2023-05-22T12:09:21.109Z,17.13
2023-05-22T12:10:26.183Z,17.09
2023-05-22T12:11:29.748Z,16.56
2023-05-22T12:12:33.235Z,16.15
2023-05-22T12:13:36.826Z,16.05
2023-05-22T12:14:40.131Z,16.76
2023-05-22T12:15:43.397Z,16.34
2023-05-22T12:16:52.562Z,16.74
2023-05-22T12:17:57.120Z,14.84
2023-05-22T12:19:00.421Z,15.95
2023-05-22T12:20:05.431Z,15.44
2023-05-22T12:21:08.949Z,15.46
2023-05-22T12:22:13.236Z,15.54
2023-05-22T12:23:30.845Z,15.90
2023-05-22T12:24:41.686Z,15.57
2023-05-22T12:25:44.988Z,15.75
2023-05-22T12:26:52.283Z,15.72
2023-05-22T12:27:56.067Z,15.21
2023-05-22T12:29:00.300Z,14.64
2023-05-22T12:30:11.343Z,14.50
2023-05-22T12:31:25.072Z,15.07
2023-05-22T12:32:30.806Z,15.54
2023-05-22T12:33:34.162Z,14.61
2023-05-22T12:34:46.989Z,15.13
2023-05-22T12:35:53.916Z,14.48
2023-05-22T12:36:57.151Z,14.43
2023-05-22T12:38:00.530Z,14.08
2023-05-22T12:39:11.881Z,14.65
2023-05-22T12:40:15.131Z,15.02
2023-05-22T12:41:18.533Z,14.08
2023-05-22T12:42:22.194Z,14.20
2023-05-22T12:43:27.129Z,14.18
2023-05-22T12:44:30.455Z,15.05
2023-05-22T12:45:33.762Z,14.34
2023-05-22T12:46:37.292Z,15.00
2023-05-22T12:47:40.632Z,15.09
2023-05-22T12:48:44.114Z,15.13
2023-05-22T12:49:47.529Z,14.28
2023-05-22T12:50:51.186Z,13.94
2023-05-22T12:51:54.572Z,14.90
2023-05-22T12:52:57.910Z,14.50
2023-05-22T12:54:05.389Z,14.21
2023-05-22T12:55:10.393Z,13.92
2023-05-22T12:56:13.741Z,13.49
2023-05-22T12:57:17.618Z,14.29
2023-05-22T12:58:20.995Z,14.25
2023-05-22T12:59:24.584Z,14.27
2023-05-22T13:00:27.981Z,14.25
2023-05-22T13:01:31.422Z,14.73
2023-05-22T13:02:35.237Z,14.81
2023-05-22T13:03:38.678Z,14.31
2023-05-22T13:04:42.126Z,13.92
2023-05-22T13:05:45.581Z,14.78
2023-05-22T13:06:48.880Z,14.61
2023-05-22T13:07:52.203Z,14.88
2023-05-22T13:08:55.519Z,14.32
2023-05-22T13:09:58.868Z,14.48
2023-05-22T13:11:02.250Z,14.62
2023-05-22T13:12:06.215Z,14.20
2023-05-22T13:13:09.551Z,15.17
2023-05-22T13:14:12.757Z,15.11
2023-05-22T13:15:16.772Z,15.06
2023-05-22T13:16:20.242Z,14.89
2023-05-22T13:17:23.525Z,14.92
2023-05-22T13:18:26.778Z,14.90
2023-05-22T13:19:30.182Z,14.46
2023-05-22T13:20:33.670Z,13.89
2023-05-22T13:21:37.823Z,14.86
2023-05-22T13:22:42.522Z,15.17
2023-05-22T13:23:45.888Z,14.72
2023-05-22T13:24:49.414Z,15.29
2023-05-22T13:25:52.692Z,15.17
2023-05-22T13:26:55.985Z,15.11
2023-05-22T13:28:00.600Z,15.65
2023-05-22T13:29:04.066Z,15.50
2023-05-22T13:30:11.068Z,14.10
2023-05-22T13:31:14.500Z,14.26
2023-05-22T13:32:19.792Z,14.37
2023-05-22T13:33:23.352Z,15.19
2023-05-22T13:34:26.792Z,15.10
2023-05-22T13:35:30.352Z,14.51
2023-05-22T13:36:34.797Z,14.59
2023-05-22T13:37:38.462Z,14.77
2023-05-22T13:38:41.866Z,15.14
2023-05-22T13:39:45.130Z,14.75
2023-05-22T13:40:48.810Z,14.77
2023-05-22T13:41:55.450Z,14.51
2023-05-22T13:42:58.849Z,14.77
2023-05-22T13:44:02.186Z,14.97
2023-05-22T13:45:06.885Z,14.31
2023-05-22T13:46:10.104Z,14.04
2023-05-22T13:47:13.519Z,14.32
2023-05-22T13:48:16.835Z,14.48
2023-05-22T13:49:20.465Z,13.60
2023-05-22T13:50:23.790Z,14.05
2023-05-22T13:51:27.120Z,15.05
2023-05-22T13:52:30.501Z,14.81
2023-05-22T13:53:33.841Z,13.99
2023-05-22T13:54:37.268Z,14.00
2023-05-22T13:55:40.877Z,14.01
2023-05-22T13:56:44.385Z,13.62
2023-05-22T13:57:47.676Z,14.49
2023-05-22T13:58:51.176Z,13.58
2023-05-22T13:59:54.976Z,14.13
2023-05-22T14:00:58.960Z,14.06
2023-05-22T14:02:02.509Z,14.14
2023-05-22T14:03:05.895Z,13.13
2023-05-22T14:04:09.266Z,13.52
2023-05-22T14:05:12.809Z,14.25
2023-05-22T14:06:16.175Z,13.60
2023-05-22T14:07:19.643Z,13.61
2023-05-22T14:08:22.909Z,13.96
2023-05-22T14:09:26.332Z,13.73
2023-05-22T14:10:29.576Z,14.34
2023-05-22T14:11:32.798Z,13.75
2023-05-22T14:12:36.220Z,14.30
2023-05-22T14:13:39.730Z,13.95